Time,TemperatureF,DewpointF,PressureIn,WindDirection,WindDirectionDegrees,WindSpeedMPH,WindSpeedGustMPH,Humidity,HourlyPrecipIn,Conditions,Clouds,dailyrainin,SolarRadiationWatts/m^2,SoftwareType,DateUTC
2013-06-05 01:00:00,61.0,60.0,29.96,East,83,2.0,-999.0,96,-99.99,,,-99.99,0.000000,,2013-06-05 06:00:00,
2013-06-05 01:32:00,61.0,60.0,29.96,East,83,2.0,-999.0,96,-99.99,,,-99.99,0.000000,,2013-06-05 06:32:00,
2013-06-05 01:42:00,61.0,60.0,29.96,East,83,2.0,-999.0,96,-99.99,,,-99.99,0.000000,,2013-06-05 06:42:00,
2013-06-05 01:52:00,61.0,60.0,29.96,East,83,2.0,-999.0,96,-99.99,,,-99.99,0.000000,,2013-06-05 06:52:00,
2013-06-05 03:00:00,60.0,58.0,29.98,East,81,1.0,-999.0,93,-99.99,,,-99.99,0.000000,,2013-06-05 08:00:00,
2013-06-05 03:52:00,60.0,58.0,29.98,East,81,1.0,-999.0,93,-99.99,,,-99.99,0.000000,,2013-06-05 08:52:00,
2013-06-05 04:00:00,60.0,58.0,29.95,East,101,1.0,-999.0,94,-99.99,,,-99.99,0.000000,,2013-06-05 09:00:00,
2013-06-05 04:53:00,60.0,58.0,29.95,East,101,1.0,-999.0,94,-99.99,,,-99.99,0.000000,,2013-06-05 09:53:00,
2013-06-05 05:00:00,59.0,58.0,29.95,East,86,2.0,-999.0,95,-99.99,,,-99.99,0.000000,,2013-06-05 10:00:00,
2013-06-05 05:53:00,59.0,58.0,29.95,East,86,2.0,-999.0,95,-99.99,,,-99.99,0.000000,,2013-06-05 10:53:00,
2013-06-05 06:00:00,59.0,57.0,29.92,East,86,2.0,-999.0,96,-99.99,,,-99.99,1.250000,,2013-06-05 11:00:00,
2013-06-05 06:52:00,59.0,57.0,29.92,East,86,2.0,-999.0,96,-99.99,,,-99.99,1.250000,,2013-06-05 11:52:00,
2013-06-05 07:00:00,59.0,58.0,29.93,East,90,2.0,-999.0,97,-99.99,,,-99.99,19.340000,,2013-06-05 12:00:00,
2013-06-05 07:52:00,59.0,58.0,29.93,East,90,2.0,-999.0,97,-99.99,,,-99.99,19.340000,,2013-06-05 12:52:00,
2013-06-05 08:00:00,60.0,58.0,29.93,ESE,105,2.0,-999.0,95,-99.99,,,-99.99,37.790001,,2013-06-05 13:00:00,
2013-06-05 08:52:00,60.0,58.0,29.93,ESE,105,2.0,-999.0,95,-99.99,,,-99.99,37.790001,,2013-06-05 13:52:00,
2013-06-05 09:00:00,61.0,59.0,29.95,ESE,114,1.0,-999.0,92,-99.99,,,-99.99,49.380001,,2013-06-05 14:00:00,
2013-06-05 09:52:00,61.0,59.0,29.95,ESE,114,1.0,-999.0,92,-99.99,,,-99.99,49.380001,,2013-06-05 14:52:00,
2013-06-05 12:00:00,62.0,61.0,29.95,SSW,205,1.0,-999.0,99,-99.99,,,-99.99,40.570000,,2013-06-05 17:00:00,
2013-06-05 12:52:00,62.0,61.0,29.95,SSW,205,1.0,-999.0,99,-99.99,,,-99.99,40.570000,,2013-06-05 17:52:00,
2013-06-05 14:00:00,63.0,63.0,29.92,North,360,3.0,-999.0,99,-99.99,,,-99.99,114.000000,,2013-06-05 19:00:00,
2013-06-05 14:53:00,63.0,63.0,29.92,North,360,3.0,-999.0,99,-99.99,,,-99.99,114.000000,,2013-06-05 19:53:00,
2013-06-05 15:00:00,65.0,64.0,29.91,North,3,2.0,-999.0,97,-99.99,,,-99.99,144.399994,,2013-06-05 20:00:00,
2013-06-05 15:52:00,65.0,64.0,29.91,North,3,2.0,-999.0,97,-99.99,,,-99.99,144.399994,,2013-06-05 20:52:00,
2013-06-05 16:00:00,66.0,65.0,29.92,NNW,348,2.0,-999.0,95,-99.99,,,-99.99,131.100006,,2013-06-05 21:00:00,
2013-06-05 16:53:00,66.0,65.0,29.92,NNW,348,2.0,-999.0,95,-99.99,,,-99.99,131.100006,,2013-06-05 21:53:00,
2013-06-05 17:00:00,67.0,64.0,29.91,North,350,2.0,-999.0,90,-99.99,,,-99.99,180.800003,,2013-06-05 22:00:00,
2013-06-05 17:53:00,67.0,64.0,29.91,North,350,2.0,-999.0,90,-99.99,,,-99.99,180.800003,,2013-06-05 22:53:00,
2013-06-05 18:00:00,67.0,63.0,29.90,NE,34,3.0,-999.0,89,-99.99,,,-99.99,204.899994,,2013-06-05 23:00:00,
2013-06-05 18:53:00,67.0,63.0,29.90,NE,34,3.0,-999.0,89,-99.99,,,-99.99,204.899994,,2013-06-05 23:53:00,
2013-06-05 19:00:00,67.0,64.0,29.90,NE,42,3.0,-999.0,89,-99.99,,,-99.99,112.800003,,2013-06-06 00:00:00,
2013-06-05 19:52:00,67.0,64.0,29.90,NE,42,3.0,-999.0,89,-99.99,,,-99.99,112.800003,,2013-06-06 00:52:00,
2013-06-05 23:00:00,64.0,63.0,29.95,NW,318,1.0,-999.0,97,-99.99,,,-99.99,0.000000,,2013-06-06 04:00:00,
2013-06-05 23:53:00,64.0,63.0,29.95,NW,318,1.0,-999.0,97,-99.99,,,-99.99,0.000000,,2013-06-06 04:53:00,